sensor_id;sensor_type;location;lat;lon;timestamp;temperature;humidity
20479;DHT22;10398;52.490;13.434;2023-06-26T00:01:57;21.90;99.90
20479;DHT22;10398;52.490;13.434;2023-06-26T00:04:23;21.80;99.90
20479;DHT22;10398;52.490;13.434;2023-06-26T00:06:49;21.70;99.90
20479;DHT22;10398;52.490;13.434;2023-06-26T00:09:14;21.80;99.90
20479;DHT22;10398;52.490;13.434;2023-06-26T00:11:40;21.80;99.90
20479;DHT22;10398;52.490;13.434;2023-06-26T00:14:05;21.70;99.90
20479;DHT22;10398;52.490;13.434;2023-06-26T00:16:32;21.60;99.90
20479;DHT22;10398;52.490;13.434;2023-06-26T00:18:57;21.60;99.90
20479;DHT22;10398;52.490;13.434;2023-06-26T00:21:24;21.60;99.90
20479;DHT22;10398;52.490;13.434;2023-06-26T00:23:51;21.50;99.90
20479;DHT22;10398;52.490;13.434;2023-06-26T00:26:16;21.50;99.90
20479;DHT22;10398;52.490;13.434;2023-06-26T00:28:42;21.40;99.90
20479;DHT22;10398;52.490;13.434;2023-06-26T00:31:08;21.40;99.90
20479;DHT22;10398;52.490;13.434;2023-06-26T00:33:33;21.30;99.90
20479;DHT22;10398;52.490;13.434;2023-06-26T00:35:59;21.40;99.90
20479;DHT22;10398;52.490;13.434;2023-06-26T00:38:25;21.40;99.90
20479;DHT22;10398;52.490;13.434;2023-06-26T00:40:51;21.40;99.90
20479;DHT22;10398;52.490;13.434;2023-06-26T00:43:16;21.40;99.90
20479;DHT22;10398;52.490;13.434;2023-06-26T00:45:42;21.40;99.90
20479;DHT22;10398;52.490;13.434;2023-06-26T00:48:09;21.30;99.90
20479;DHT22;10398;52.490;13.434;2023-06-26T00:50:37;21.30;99.90
20479;DHT22;10398;52.490;13.434;2023-06-26T00:53:03;21.30;99.90
20479;DHT22;10398;52.490;13.434;2023-06-26T00:55:29;21.20;99.90
20479;DHT22;10398;52.490;13.434;2023-06-26T00:57:55;21.20;99.90
20479;DHT22;10398;52.490;13.434;2023-06-26T01:00:21;21.20;99.90
20479;DHT22;10398;52.490;13.434;2023-06-26T01:02:47;21.20;99.90
20479;DHT22;10398;52.490;13.434;2023-06-26T01:05:13;21.20;99.90
20479;DHT22;10398;52.490;13.434;2023-06-26T01:07:48;21.20;99.90
20479;DHT22;10398;52.490;13.434;2023-06-26T01:10:14;21.20;99.90
20479;DHT22;10398;52.490;13.434;2023-06-26T01:12:40;21.10;99.90
20479;DHT22;10398;52.490;13.434;2023-06-26T01:15:06;21.10;99.90
20479;DHT22;10398;52.490;13.434;2023-06-26T01:17:33;21.20;99.90
20479;DHT22;10398;52.490;13.434;2023-06-26T01:19:59;21.10;99.90
20479;DHT22;10398;52.490;13.434;2023-06-26T01:22:34;21.10;99.90
20479;DHT22;10398;52.490;13.434;2023-06-26T01:28:04;21.00;99.90
20479;DHT22;10398;52.490;13.434;2023-06-26T01:30:38;21.00;99.90
20479;DHT22;10398;52.490;13.434;2023-06-26T01:33:04;21.00;99.90
20479;DHT22;10398;52.490;13.434;2023-06-26T01:35:30;20.90;99.90
20479;DHT22;10398;52.490;13.434;2023-06-26T01:38:16;20.90;99.90
20479;DHT22;10398;52.490;13.434;2023-06-26T01:40:42;21.00;99.90
20479;DHT22;10398;52.490;13.434;2023-06-26T01:45:46;20.90;99.90
20479;DHT22;10398;52.490;13.434;2023-06-26T01:48:16;21.00;99.90
20479;DHT22;10398;52.490;13.434;2023-06-26T01:50:44;20.90;99.90
20479;DHT22;10398;52.490;13.434;2023-06-26T01:53:15;20.90;99.90
20479;DHT22;10398;52.490;13.434;2023-06-26T01:55:50;20.90;99.90
20479;DHT22;10398;52.490;13.434;2023-06-26T01:58:17;20.90;99.90
20479;DHT22;10398;52.490;13.434;2023-06-26T02:00:46;20.90;99.90
20479;DHT22;10398;52.490;13.434;2023-06-26T02:03:11;20.90;99.90
20479;DHT22;10398;52.490;13.434;2023-06-26T02:05:37;20.90;99.90
20479;DHT22;10398;52.490;13.434;2023-06-26T02:08:03;20.80;99.90
20479;DHT22;10398;52.490;13.434;2023-06-26T02:10:29;20.80;99.90
20479;DHT22;10398;52.490;13.434;2023-06-26T02:12:55;20.80;99.90
20479;DHT22;10398;52.490;13.434;2023-06-26T02:15:21;20.80;99.90
20479;DHT22;10398;52.490;13.434;2023-06-26T02:17:47;20.80;99.90
20479;DHT22;10398;52.490;13.434;2023-06-26T02:20:14;20.80;99.90
20479;DHT22;10398;52.490;13.434;2023-06-26T02:22:41;20.80;99.90
20479;DHT22;10398;52.490;13.434;2023-06-26T02:25:07;20.80;99.90
20479;DHT22;10398;52.490;13.434;2023-06-26T02:27:32;20.80;99.90
20479;DHT22;10398;52.490;13.434;2023-06-26T02:29:58;20.80;99.90
20479;DHT22;10398;52.490;13.434;2023-06-26T02:32:24;20.80;99.90
20479;DHT22;10398;52.490;13.434;2023-06-26T02:34:49;20.80;99.90
20479;DHT22;10398;52.490;13.434;2023-06-26T02:37:17;20.80;99.90
20479;DHT22;10398;52.490;13.434;2023-06-26T02:39:43;20.70;99.90
20479;DHT22;10398;52.490;13.434;2023-06-26T02:42:08;20.70;99.90
20479;DHT22;10398;52.490;13.434;2023-06-26T02:44:34;20.60;99.90
20479;DHT22;10398;52.490;13.434;2023-06-26T02:46:59;20.70;99.90
20479;DHT22;10398;52.490;13.434;2023-06-26T02:49:25;20.70;99.90
20479;DHT22;10398;52.490;13.434;2023-06-26T02:51:51;20.60;99.90
20479;DHT22;10398;52.490;13.434;2023-06-26T02:54:16;20.60;99.90
20479;DHT22;10398;52.490;13.434;2023-06-26T02:56:42;20.60;99.90
20479;DHT22;10398;52.490;13.434;2023-06-26T02:59:08;20.60;99.90
20479;DHT22;10398;52.490;13.434;2023-06-26T03:01:33;20.60;99.90
20479;DHT22;10398;52.490;13.434;2023-06-26T03:03:59;20.60;99.90
20479;DHT22;10398;52.490;13.434;2023-06-26T03:06:26;20.60;99.90
20479;DHT22;10398;52.490;13.434;2023-06-26T03:08:53;20.60;99.90
20479;DHT22;10398;52.490;13.434;2023-06-26T03:11:19;20.60;99.90
20479;DHT22;10398;52.490;13.434;2023-06-26T03:13:45;20.60;99.90
20479;DHT22;10398;52.490;13.434;2023-06-26T03:16:10;20.70;99.90
20479;DHT22;10398;52.490;13.434;2023-06-26T03:18:36;20.60;99.90
20479;DHT22;10398;52.490;13.434;2023-06-26T03:21:02;20.60;99.90
20479;DHT22;10398;52.490;13.434;2023-06-26T03:23:28;20.60;99.90
20479;DHT22;10398;52.490;13.434;2023-06-26T03:25:53;20.50;99.90
20479;DHT22;10398;52.490;13.434;2023-06-26T03:28:19;20.50;99.90
20479;DHT22;10398;52.490;13.434;2023-06-26T03:30:45;20.50;99.90
20479;DHT22;10398;52.490;13.434;2023-06-26T03:33:11;20.50;99.90
20479;DHT22;10398;52.490;13.434;2023-06-26T03:35:37;20.50;99.90
20479;DHT22;10398;52.490;13.434;2023-06-26T03:38:04;20.50;99.90
20479;DHT22;10398;52.490;13.434;2023-06-26T03:40:29;20.50;99.90
20479;DHT22;10398;52.490;13.434;2023-06-26T03:42:55;20.50;99.90
20479;DHT22;10398;52.490;13.434;2023-06-26T03:45:21;20.50;99.90
20479;DHT22;10398;52.490;13.434;2023-06-26T03:47:46;20.50;99.90
20479;DHT22;10398;52.490;13.434;2023-06-26T03:50:18;20.50;99.90
20479;DHT22;10398;52.490;13.434;2023-06-26T03:52:44;20.60;99.90
20479;DHT22;10398;52.490;13.434;2023-06-26T03:55:10;20.50;99.90
20479;DHT22;10398;52.490;13.434;2023-06-26T03:57:36;20.60;99.90
20479;DHT22;10398;52.490;13.434;2023-06-26T04:00:02;20.50;99.90
20479;DHT22;10398;52.490;13.434;2023-06-26T04:02:33;20.50;99.90
20479;DHT22;10398;52.490;13.434;2023-06-26T04:04:59;20.50;99.90
20479;DHT22;10398;52.490;13.434;2023-06-26T04:07:26;20.50;99.90
20479;DHT22;10398;52.490;13.434;2023-06-26T04:09:51;20.60;99.90
20479;DHT22;10398;52.490;13.434;2023-06-26T04:12:17;20.60;99.90
20479;DHT22;10398;52.490;13.434;2023-06-26T04:14:43;20.60;99.90
20479;DHT22;10398;52.490;13.434;2023-06-26T04:17:09;20.60;99.90
20479;DHT22;10398;52.490;13.434;2023-06-26T04:19:35;20.60;99.90
20479;DHT22;10398;52.490;13.434;2023-06-26T04:22:02;20.60;99.90
20479;DHT22;10398;52.490;13.434;2023-06-26T04:24:27;20.60;99.90
20479;DHT22;10398;52.490;13.434;2023-06-26T04:26:53;20.70;99.90
20479;DHT22;10398;52.490;13.434;2023-06-26T04:29:22;20.70;99.90
20479;DHT22;10398;52.490;13.434;2023-06-26T04:31:51;20.80;99.90
20479;DHT22;10398;52.490;13.434;2023-06-26T04:34:16;20.80;99.90
20479;DHT22;10398;52.490;13.434;2023-06-26T04:36:42;20.90;99.90
20479;DHT22;10398;52.490;13.434;2023-06-26T04:39:11;20.90;99.90
20479;DHT22;10398;52.490;13.434;2023-06-26T04:41:37;20.90;99.90
20479;DHT22;10398;52.490;13.434;2023-06-26T04:44:03;20.90;99.90
20479;DHT22;10398;52.490;13.434;2023-06-26T04:46:29;21.00;99.90
20479;DHT22;10398;52.490;13.434;2023-06-26T04:48:54;20.90;99.90
20479;DHT22;10398;52.490;13.434;2023-06-26T04:51:20;20.90;99.90
20479;DHT22;10398;52.490;13.434;2023-06-26T04:53:46;20.90;99.90
20479;DHT22;10398;52.490;13.434;2023-06-26T04:56:12;20.90;99.90
20479;DHT22;10398;52.490;13.434;2023-06-26T04:58:38;20.90;99.90
20479;DHT22;10398;52.490;13.434;2023-06-26T05:01:03;21.00;99.90
20479;DHT22;10398;52.490;13.434;2023-06-26T05:03:32;21.00;99.90
20479;DHT22;10398;52.490;13.434;2023-06-26T05:05:58;21.00;99.90
20479;DHT22;10398;52.490;13.434;2023-06-26T05:08:24;21.00;99.90
20479;DHT22;10398;52.490;13.434;2023-06-26T05:10:52;21.00;99.90
20479;DHT22;10398;52.490;13.434;2023-06-26T05:13:19;21.10;99.90
20479;DHT22;10398;52.490;13.434;2023-06-26T05:15:46;21.10;99.90
20479;DHT22;10398;52.490;13.434;2023-06-26T05:18:12;21.20;99.90
20479;DHT22;10398;52.490;13.434;2023-06-26T05:20:38;21.20;99.90
20479;DHT22;10398;52.490;13.434;2023-06-26T05:23:04;21.20;99.90
20479;DHT22;10398;52.490;13.434;2023-06-26T05:25:31;21.30;99.90
20479;DHT22;10398;52.490;13.434;2023-06-26T05:27:57;21.30;99.90
20479;DHT22;10398;52.490;13.434;2023-06-26T05:30:24;21.40;99.90
20479;DHT22;10398;52.490;13.434;2023-06-26T05:32:54;21.40;99.90
20479;DHT22;10398;52.490;13.434;2023-06-26T05:35:23;21.40;99.90
20479;DHT22;10398;52.490;13.434;2023-06-26T05:37:49;21.50;99.90
20479;DHT22;10398;52.490;13.434;2023-06-26T05:40:16;21.50;99.90
20479;DHT22;10398;52.490;13.434;2023-06-26T05:42:43;21.60;99.90
20479;DHT22;10398;52.490;13.434;2023-06-26T05:45:09;21.60;99.90
20479;DHT22;10398;52.490;13.434;2023-06-26T05:47:35;21.60;99.90
20479;DHT22;10398;52.490;13.434;2023-06-26T05:50:01;21.70;99.90
20479;DHT22;10398;52.490;13.434;2023-06-26T05:52:27;21.60;99.90
20479;DHT22;10398;52.490;13.434;2023-06-26T05:54:53;21.70;99.90
20479;DHT22;10398;52.490;13.434;2023-06-26T05:57:20;21.60;99.90
20479;DHT22;10398;52.490;13.434;2023-06-26T05:59:46;21.70;99.90
20479;DHT22;10398;52.490;13.434;2023-06-26T06:02:13;21.70;99.90
20479;DHT22;10398;52.490;13.434;2023-06-26T06:04:39;21.70;99.90
20479;DHT22;10398;52.490;13.434;2023-06-26T06:07:05;21.80;99.90
20479;DHT22;10398;52.490;13.434;2023-06-26T06:09:30;21.80;99.90
20479;DHT22;10398;52.490;13.434;2023-06-26T06:11:56;21.90;99.90
20479;DHT22;10398;52.490;13.434;2023-06-26T06:14:21;21.90;99.90
20479;DHT22;10398;52.490;13.434;2023-06-26T06:16:47;22.00;99.90
20479;DHT22;10398;52.490;13.434;2023-06-26T06:19:13;22.00;99.90
20479;DHT22;10398;52.490;13.434;2023-06-26T06:21:39;22.00;99.90
20479;DHT22;10398;52.490;13.434;2023-06-26T06:24:05;22.10;99.90
20479;DHT22;10398;52.490;13.434;2023-06-26T06:26:32;22.20;99.90
20479;DHT22;10398;52.490;13.434;2023-06-26T06:28:58;22.30;99.90
20479;DHT22;10398;52.490;13.434;2023-06-26T06:31:23;22.30;99.90
20479;DHT22;10398;52.490;13.434;2023-06-26T06:33:49;22.40;99.90
20479;DHT22;10398;52.490;13.434;2023-06-26T06:36:15;22.50;99.90
20479;DHT22;10398;52.490;13.434;2023-06-26T06:38:43;22.50;99.90
20479;DHT22;10398;52.490;13.434;2023-06-26T06:41:09;22.60;99.90
20479;DHT22;10398;52.490;13.434;2023-06-26T06:43:35;22.70;99.90
20479;DHT22;10398;52.490;13.434;2023-06-26T06:46:01;22.80;99.90
20479;DHT22;10398;52.490;13.434;2023-06-26T06:48:27;22.90;99.90
20479;DHT22;10398;52.490;13.434;2023-06-26T06:50:53;22.90;99.90
20479;DHT22;10398;52.490;13.434;2023-06-26T06:53:19;23.00;99.90
20479;DHT22;10398;52.490;13.434;2023-06-26T06:55:48;23.10;99.90
20479;DHT22;10398;52.490;13.434;2023-06-26T06:58:14;23.10;99.90
20479;DHT22;10398;52.490;13.434;2023-06-26T07:00:42;23.20;99.90
20479;DHT22;10398;52.490;13.434;2023-06-26T07:03:08;23.30;99.90
20479;DHT22;10398;52.490;13.434;2023-06-26T07:05:33;23.30;99.90
20479;DHT22;10398;52.490;13.434;2023-06-26T07:07:59;23.40;99.90
20479;DHT22;10398;52.490;13.434;2023-06-26T07:10:25;23.40;99.90
20479;DHT22;10398;52.490;13.434;2023-06-26T07:12:50;23.50;99.90
20479;DHT22;10398;52.490;13.434;2023-06-26T07:15:16;23.60;99.90
20479;DHT22;10398;52.490;13.434;2023-06-26T07:17:43;23.70;99.90
20479;DHT22;10398;52.490;13.434;2023-06-26T07:20:09;23.70;99.90
20479;DHT22;10398;52.490;13.434;2023-06-26T07:22:40;23.80;99.90
20479;DHT22;10398;52.490;13.434;2023-06-26T07:25:06;23.80;99.90
20479;DHT22;10398;52.490;13.434;2023-06-26T07:27:35;23.90;99.90
20479;DHT22;10398;52.490;13.434;2023-06-26T07:30:01;24.00;99.90
20479;DHT22;10398;52.490;13.434;2023-06-26T07:32:26;24.10;99.90
20479;DHT22;10398;52.490;13.434;2023-06-26T07:34:52;24.10;99.90
20479;DHT22;10398;52.490;13.434;2023-06-26T07:37:18;24.20;99.90
20479;DHT22;10398;52.490;13.434;2023-06-26T07:39:43;24.30;99.90
20479;DHT22;10398;52.490;13.434;2023-06-26T07:42:09;24.30;99.90
20479;DHT22;10398;52.490;13.434;2023-06-26T07:44:34;24.40;99.90
20479;DHT22;10398;52.490;13.434;2023-06-26T07:47:00;24.40;99.90
20479;DHT22;10398;52.490;13.434;2023-06-26T07:49:26;24.50;99.90
20479;DHT22;10398;52.490;13.434;2023-06-26T07:51:51;24.60;99.90
20479;DHT22;10398;52.490;13.434;2023-06-26T07:54:17;24.70;99.90
20479;DHT22;10398;52.490;13.434;2023-06-26T07:57:09;24.70;99.90
20479;DHT22;10398;52.490;13.434;2023-06-26T07:59:36;24.80;99.90
20479;DHT22;10398;52.490;13.434;2023-06-26T08:02:02;24.80;99.90
20479;DHT22;10398;52.490;13.434;2023-06-26T08:04:29;24.90;99.90
20479;DHT22;10398;52.490;13.434;2023-06-26T08:06:58;25.00;99.90
20479;DHT22;10398;52.490;13.434;2023-06-26T08:09:27;25.00;99.90
20479;DHT22;10398;52.490;13.434;2023-06-26T08:11:53;25.10;99.90
20479;DHT22;10398;52.490;13.434;2023-06-26T08:14:19;25.20;99.90
20479;DHT22;10398;52.490;13.434;2023-06-26T08:16:45;25.20;99.90
20479;DHT22;10398;52.490;13.434;2023-06-26T08:19:12;25.20;99.90
20479;DHT22;10398;52.490;13.434;2023-06-26T08:21:38;25.30;99.90
20479;DHT22;10398;52.490;13.434;2023-06-26T08:24:03;25.40;99.90
20479;DHT22;10398;52.490;13.434;2023-06-26T08:26:29;25.40;99.90
20479;DHT22;10398;52.490;13.434;2023-06-26T08:28:55;25.40;99.90
20479;DHT22;10398;52.490;13.434;2023-06-26T08:31:20;25.50;99.90
20479;DHT22;10398;52.490;13.434;2023-06-26T08:33:47;25.60;99.90
20479;DHT22;10398;52.490;13.434;2023-06-26T08:36:13;25.70;99.90
20479;DHT22;10398;52.490;13.434;2023-06-26T08:38:39;25.80;99.90
20479;DHT22;10398;52.490;13.434;2023-06-26T08:41:07;25.80;99.90
20479;DHT22;10398;52.490;13.434;2023-06-26T08:43:35;25.80;99.90
20479;DHT22;10398;52.490;13.434;2023-06-26T08:46:01;25.90;99.90
20479;DHT22;10398;52.490;13.434;2023-06-26T08:48:30;26.00;99.90
20479;DHT22;10398;52.490;13.434;2023-06-26T08:50:57;26.00;99.90
20479;DHT22;10398;52.490;13.434;2023-06-26T08:53:33;26.10;99.90
20479;DHT22;10398;52.490;13.434;2023-06-26T08:56:00;26.20;99.90
20479;DHT22;10398;52.490;13.434;2023-06-26T08:58:26;26.30;99.90
20479;DHT22;10398;52.490;13.434;2023-06-26T09:00:52;26.40;99.90
20479;DHT22;10398;52.490;13.434;2023-06-26T09:03:19;26.40;99.90
20479;DHT22;10398;52.490;13.434;2023-06-26T09:05:45;26.50;99.90
20479;DHT22;10398;52.490;13.434;2023-06-26T09:08:10;26.70;99.90
20479;DHT22;10398;52.490;13.434;2023-06-26T09:10:36;26.80;99.90
20479;DHT22;10398;52.490;13.434;2023-06-26T09:13:02;26.80;99.90
20479;DHT22;10398;52.490;13.434;2023-06-26T09:15:37;26.80;99.90
20479;DHT22;10398;52.490;13.434;2023-06-26T09:18:04;26.80;99.90
20479;DHT22;10398;52.490;13.434;2023-06-26T09:20:31;27.00;99.90
20479;DHT22;10398;52.490;13.434;2023-06-26T09:22:59;27.00;99.90
20479;DHT22;10398;52.490;13.434;2023-06-26T09:25:25;27.10;99.90
20479;DHT22;10398;52.490;13.434;2023-06-26T09:27:52;27.20;99.90
20479;DHT22;10398;52.490;13.434;2023-06-26T09:30:18;27.20;99.90
20479;DHT22;10398;52.490;13.434;2023-06-26T09:32:44;27.20;99.90
20479;DHT22;10398;52.490;13.434;2023-06-26T09:35:10;27.30;99.90
20479;DHT22;10398;52.490;13.434;2023-06-26T09:37:36;27.50;99.90
20479;DHT22;10398;52.490;13.434;2023-06-26T09:40:02;27.50;99.90
20479;DHT22;10398;52.490;13.434;2023-06-26T09:42:29;27.60;99.90
20479;DHT22;10398;52.490;13.434;2023-06-26T09:44:55;27.60;99.90
20479;DHT22;10398;52.490;13.434;2023-06-26T09:47:21;27.70;99.90
20479;DHT22;10398;52.490;13.434;2023-06-26T09:49:47;27.70;99.90
20479;DHT22;10398;52.490;13.434;2023-06-26T09:52:17;27.80;99.90
20479;DHT22;10398;52.490;13.434;2023-06-26T09:54:44;27.80;99.90
20479;DHT22;10398;52.490;13.434;2023-06-26T09:57:12;27.90;99.90
20479;DHT22;10398;52.490;13.434;2023-06-26T09:59:39;28.00;99.90
20479;DHT22;10398;52.490;13.434;2023-06-26T10:02:05;28.00;99.90
20479;DHT22;10398;52.490;13.434;2023-06-26T10:04:31;28.00;99.90
20479;DHT22;10398;52.490;13.434;2023-06-26T10:06:58;28.00;99.90
20479;DHT22;10398;52.490;13.434;2023-06-26T10:09:24;28.20;99.90
20479;DHT22;10398;52.490;13.434;2023-06-26T10:11:58;28.20;99.90
20479;DHT22;10398;52.490;13.434;2023-06-26T10:14:27;28.20;99.90
20479;DHT22;10398;52.490;13.434;2023-06-26T10:16:58;28.30;99.90
20479;DHT22;10398;52.490;13.434;2023-06-26T10:19:26;28.40;99.90
20479;DHT22;10398;52.490;13.434;2023-06-26T10:21:56;28.40;99.90
20479;DHT22;10398;52.490;13.434;2023-06-26T10:24:23;28.40;99.90
20479;DHT22;10398;52.490;13.434;2023-06-26T10:26:54;28.40;99.90
20479;DHT22;10398;52.490;13.434;2023-06-26T10:29:21;28.40;99.90
20479;DHT22;10398;52.490;13.434;2023-06-26T10:31:52;28.50;99.90
20479;DHT22;10398;52.490;13.434;2023-06-26T10:34:20;28.60;99.90
20479;DHT22;10398;52.490;13.434;2023-06-26T10:36:47;28.60;99.90
20479;DHT22;10398;52.490;13.434;2023-06-26T10:39:13;28.80;99.90
20479;DHT22;10398;52.490;13.434;2023-06-26T10:41:42;28.70;99.90
20479;DHT22;10398;52.490;13.434;2023-06-26T10:44:15;28.60;99.90
20479;DHT22;10398;52.490;13.434;2023-06-26T10:46:55;28.60;99.90
20479;DHT22;10398;52.490;13.434;2023-06-26T10:49:27;28.70;99.90
20479;DHT22;10398;52.490;13.434;2023-06-26T10:51:53;28.80;99.90
20479;DHT22;10398;52.490;13.434;2023-06-26T10:54:21;28.90;99.90
20479;DHT22;10398;52.490;13.434;2023-06-26T10:56:53;28.90;99.90
20479;DHT22;10398;52.490;13.434;2023-06-26T10:59:23;28.90;99.90
20479;DHT22;10398;52.490;13.434;2023-06-26T11:04:44;29.10;99.90
20479;DHT22;10398;52.490;13.434;2023-06-26T11:07:25;29.20;99.90
20479;DHT22;10398;52.490;13.434;2023-06-26T11:10:07;29.40;99.90
20479;DHT22;10398;52.490;13.434;2023-06-26T11:12:41;29.50;99.90
20479;DHT22;10398;52.490;13.434;2023-06-26T11:15:13;29.60;99.90
20479;DHT22;10398;52.490;13.434;2023-06-26T11:17:39;29.60;99.90
20479;DHT22;10398;52.490;13.434;2023-06-26T11:20:06;29.70;99.90
20479;DHT22;10398;52.490;13.434;2023-06-26T11:22:37;29.80;99.90
20479;DHT22;10398;52.490;13.434;2023-06-26T11:25:04;29.80;99.90
20479;DHT22;10398;52.490;13.434;2023-06-26T11:27:41;29.80;99.90
20479;DHT22;10398;52.490;13.434;2023-06-26T11:30:09;29.80;99.90
20479;DHT22;10398;52.490;13.434;2023-06-26T11:32:36;29.90;99.90
20479;DHT22;10398;52.490;13.434;2023-06-26T11:35:02;30.00;99.90
20479;DHT22;10398;52.490;13.434;2023-06-26T11:37:30;30.00;99.90
20479;DHT22;10398;52.490;13.434;2023-06-26T11:39:56;30.10;99.90
20479;DHT22;10398;52.490;13.434;2023-06-26T11:42:22;30.00;99.90
20479;DHT22;10398;52.490;13.434;2023-06-26T11:44:48;30.20;99.90
20479;DHT22;10398;52.490;13.434;2023-06-26T11:47:18;30.20;99.90
20479;DHT22;10398;52.490;13.434;2023-06-26T11:49:45;30.20;99.90
20479;DHT22;10398;52.490;13.434;2023-06-26T11:52:11;30.30;99.90
20479;DHT22;10398;52.490;13.434;2023-06-26T11:54:37;30.40;99.90
20479;DHT22;10398;52.490;13.434;2023-06-26T11:57:04;30.40;99.90
20479;DHT22;10398;52.490;13.434;2023-06-26T11:59:40;30.40;99.90
20479;DHT22;10398;52.490;13.434;2023-06-26T12:02:10;30.50;99.90
20479;DHT22;10398;52.490;13.434;2023-06-26T12:04:40;30.50;99.90
20479;DHT22;10398;52.490;13.434;2023-06-26T12:07:08;30.50;99.90
20479;DHT22;10398;52.490;13.434;2023-06-26T12:09:46;30.60;99.90
20479;DHT22;10398;52.490;13.434;2023-06-26T12:12:14;30.70;99.90
20479;DHT22;10398;52.490;13.434;2023-06-26T12:14:41;30.80;99.90
20479;DHT22;10398;52.490;13.434;2023-06-26T12:17:11;30.80;99.90
20479;DHT22;10398;52.490;13.434;2023-06-26T12:19:38;30.80;99.90
20479;DHT22;10398;52.490;13.434;2023-06-26T12:22:08;30.60;99.90
20479;DHT22;10398;52.490;13.434;2023-06-26T12:24:37;30.70;99.90
20479;DHT22;10398;52.490;13.434;2023-06-26T12:27:11;30.70;99.90
20479;DHT22;10398;52.490;13.434;2023-06-26T12:29:39;30.80;99.90
20479;DHT22;10398;52.490;13.434;2023-06-26T12:32:08;30.90;99.90
20479;DHT22;10398;52.490;13.434;2023-06-26T12:34:35;30.80;99.90
20479;DHT22;10398;52.490;13.434;2023-06-26T12:37:07;30.80;99.90
20479;DHT22;10398;52.490;13.434;2023-06-26T12:39:53;30.80;99.90
20479;DHT22;10398;52.490;13.434;2023-06-26T12:42:26;30.70;99.90
20479;DHT22;10398;52.490;13.434;2023-06-26T12:44:52;30.60;99.90
20479;DHT22;10398;52.490;13.434;2023-06-26T12:47:28;30.70;99.90
20479;DHT22;10398;52.490;13.434;2023-06-26T12:49:54;30.80;99.90
20479;DHT22;10398;52.490;13.434;2023-06-26T12:52:21;30.90;99.90
20479;DHT22;10398;52.490;13.434;2023-06-26T12:54:51;31.00;99.90
20479;DHT22;10398;52.490;13.434;2023-06-26T12:57:17;30.90;99.90
20479;DHT22;10398;52.490;13.434;2023-06-26T12:59:43;30.90;99.90
20479;DHT22;10398;52.490;13.434;2023-06-26T13:02:09;30.90;99.90
20479;DHT22;10398;52.490;13.434;2023-06-26T13:04:37;30.90;99.90
20479;DHT22;10398;52.490;13.434;2023-06-26T13:07:05;30.90;99.90
20479;DHT22;10398;52.490;13.434;2023-06-26T13:09:33;30.90;99.90
20479;DHT22;10398;52.490;13.434;2023-06-26T13:11:59;30.90;99.90
20479;DHT22;10398;52.490;13.434;2023-06-26T13:14:24;30.80;99.90
20479;DHT22;10398;52.490;13.434;2023-06-26T13:16:50;30.60;99.90
20479;DHT22;10398;52.490;13.434;2023-06-26T13:19:16;30.50;99.90
20479;DHT22;10398;52.490;13.434;2023-06-26T13:21:41;30.40;99.90
20479;DHT22;10398;52.490;13.434;2023-06-26T13:24:07;30.30;99.90
20479;DHT22;10398;52.490;13.434;2023-06-26T13:26:33;30.10;99.90
20479;DHT22;10398;52.490;13.434;2023-06-26T13:28:59;30.10;99.90
20479;DHT22;10398;52.490;13.434;2023-06-26T13:31:25;30.00;99.90
20479;DHT22;10398;52.490;13.434;2023-06-26T13:33:51;29.90;99.90
20479;DHT22;10398;52.490;13.434;2023-06-26T13:36:18;29.80;99.90
20479;DHT22;10398;52.490;13.434;2023-06-26T13:38:43;29.70;99.90
20479;DHT22;10398;52.490;13.434;2023-06-26T13:41:09;29.70;99.90
20479;DHT22;10398;52.490;13.434;2023-06-26T13:43:35;29.50;99.90
20479;DHT22;10398;52.490;13.434;2023-06-26T13:46:01;29.50;99.90
20479;DHT22;10398;52.490;13.434;2023-06-26T13:48:28;29.40;99.90
20479;DHT22;10398;52.490;13.434;2023-06-26T13:50:54;29.40;99.90
20479;DHT22;10398;52.490;13.434;2023-06-26T13:53:20;29.40;99.90
20479;DHT22;10398;52.490;13.434;2023-06-26T13:55:45;29.30;99.90
20479;DHT22;10398;52.490;13.434;2023-06-26T13:58:11;29.40;99.90
20479;DHT22;10398;52.490;13.434;2023-06-26T14:00:39;29.50;99.90
20479;DHT22;10398;52.490;13.434;2023-06-26T14:03:04;29.50;99.90
20479;DHT22;10398;52.490;13.434;2023-06-26T14:05:35;29.50;99.90
20479;DHT22;10398;52.490;13.434;2023-06-26T14:08:06;29.50;99.90
20479;DHT22;10398;52.490;13.434;2023-06-26T14:10:32;29.40;99.90
20479;DHT22;10398;52.490;13.434;2023-06-26T14:12:59;29.30;99.90
20479;DHT22;10398;52.490;13.434;2023-06-26T14:15:25;29.30;99.90
20479;DHT22;10398;52.490;13.434;2023-06-26T14:17:50;29.20;99.90
20479;DHT22;10398;52.490;13.434;2023-06-26T14:20:17;29.10;99.90
20479;DHT22;10398;52.490;13.434;2023-06-26T14:22:43;29.00;99.90
20479;DHT22;10398;52.490;13.434;2023-06-26T14:25:10;29.00;99.90
20479;DHT22;10398;52.490;13.434;2023-06-26T14:27:36;28.40;99.90
20479;DHT22;10398;52.490;13.434;2023-06-26T14:30:06;27.40;99.90
20479;DHT22;10398;52.490;13.434;2023-06-26T14:32:33;26.50;99.90
20479;DHT22;10398;52.490;13.434;2023-06-26T14:34:58;25.70;99.90
20479;DHT22;10398;52.490;13.434;2023-06-26T14:37:25;25.30;99.90
20479;DHT22;10398;52.490;13.434;2023-06-26T14:39:51;24.70;99.90
20479;DHT22;10398;52.490;13.434;2023-06-26T14:42:17;24.40;99.90
20479;DHT22;10398;52.490;13.434;2023-06-26T14:44:42;24.10;99.90
20479;DHT22;10398;52.490;13.434;2023-06-26T14:47:08;24.00;99.90
20479;DHT22;10398;52.490;13.434;2023-06-26T14:49:34;23.90;99.90
20479;DHT22;10398;52.490;13.434;2023-06-26T14:51:59;23.80;99.90
20479;DHT22;10398;52.490;13.434;2023-06-26T14:54:25;23.80;99.90
20479;DHT22;10398;52.490;13.434;2023-06-26T14:56:51;23.70;99.90
20479;DHT22;10398;52.490;13.434;2023-06-26T14:59:16;23.70;99.90
20479;DHT22;10398;52.490;13.434;2023-06-26T15:01:42;23.70;99.90
20479;DHT22;10398;52.490;13.434;2023-06-26T15:04:08;23.70;99.90
20479;DHT22;10398;52.490;13.434;2023-06-26T15:06:34;23.70;99.90
20479;DHT22;10398;52.490;13.434;2023-06-26T15:09:00;23.80;99.90
20479;DHT22;10398;52.490;13.434;2023-06-26T15:11:26;23.80;99.90
20479;DHT22;10398;52.490;13.434;2023-06-26T15:13:51;23.80;99.90
20479;DHT22;10398;52.490;13.434;2023-06-26T15:16:17;23.70;99.90
20479;DHT22;10398;52.490;13.434;2023-06-26T15:18:44;23.70;99.90
20479;DHT22;10398;52.490;13.434;2023-06-26T15:21:09;23.80;99.90
20479;DHT22;10398;52.490;13.434;2023-06-26T15:23:35;23.80;99.90